Garland's Hourly Summary for Saturday, July 7, 2018
Hour Temp
(f)
RH
(%)
Solar Rad.
(MJ/m2)
Rainfall
(in)
Wind
(mph)
7/7/2018 12:00 AM 78 65 0 0 3.29
7/7/2018 1:00 AM 77 65 0 0 3.65
7/7/2018 2:00 AM 77 67 0 0 2.74
7/7/2018 3:00 AM 74 75 0 0 2.64
7/7/2018 4:00 AM 73 79 0 0 1.76
7/7/2018 5:00 AM 72 85 0 0 2.92
7/7/2018 6:00 AM 71 89 0 0 3.96
7/7/2018 7:00 AM 71 86 0.05 0 3.59
7/7/2018 8:00 AM 73 76 0.48 0 3.74
7/7/2018 9:00 AM 76 70 1.11 0 4.78
7/7/2018 10:00 AM 78 64 1.76 0 5.27
7/7/2018 11:00 AM 81 57 2.31 0 4.36
7/7/2018 12:00 PM 84 49 2.4 0 4.75
7/7/2018 1:00 PM 86 45 2.86 0 5.13
7/7/2018 2:00 PM 88 42 2.91 0 5.69
7/7/2018 3:00 PM 89 39 2.73 0 5.67
7/7/2018 4:00 PM 90 34 2.89 0 7.37
7/7/2018 5:00 PM 92 32 2.18 0 7.06
7/7/2018 6:00 PM 91 33 1.56 0 9.38
7/7/2018 7:00 PM 88 38 0.81 0 9.13
7/7/2018 8:00 PM 88 39 0.35 0 5.29
7/7/2018 9:00 PM 87 40 0.04 0 4.21
7/7/2018 10:00 PM 84 45 0 0 5.43
7/7/2018 11:00 PM 82 53 0 0 3.95
Data Summary 81 56 24.44 0.00 4.82